AirNav   Everest Fuels
 
 1026 users online  

ND49 Krause Private Airport
Wyndmere, North Dakota, USA

GOING TO WYNDMERE?


FAA INFORMATION EFFECTIVE 01 DECEMBER 2022

Location

FAA Identifier: ND49
Lat/Long: 46-13-24.8560N 097-07-49.3150W
46-13.414267N 097-07.821917W
46.2235711,-97.1303653
(estimated)
Elevation: 1060 ft. / 323 m (estimated)
Variation: 07E (1985)
From city: 3 miles S of WYNDMERE, ND
Time zone: UTC -6 (UTC -5 during Daylight Saving Time)
Zip code: 58081

Airport Operations

Airport use: Private use. Permission required prior to landing
Activation date: 07/1989
Control tower: no
ARTCC: MINNEAPOLIS CENTER
FSS: GRAND FORKS FLIGHT SERVICE STATION
Attendance: UNATNDD
Segmented circle: no

Nearby radio navigation aids

VOR radial/distance  VOR name  Freq  Var
FARr191/33.8FARGO VOR/DME116.2009E

Airport Services

Runway Information

Runway 8/26

Dimensions: 2310 x 60 ft. / 704 x 18 m
Surface: turf
RUNWAY 8  RUNWAY 26
Traffic pattern: leftleft
Obstructions: 5 ft. road, 80 ft. from runway
+30' TREES AT THR 120' L OF CNTRLN.
none

Airport Ownership and Management from official FAA records

Ownership: Privately-owned
Owner: DAVID W. KRAUSE
8220 HWY 18
WYNDMERE, ND 58081
Phone 701-538-4636

Airport Operational Statistics

Aircraft based on the field: 1
Single engine airplanes: 1
    

Additional Remarks

FARMSTEAD LOCATED 100' S OF RY 08.
FOR CD CTC MINNEAPOLIS ARTCC AT 651-463-5588.

Instrument Procedures

There are no published instrument procedures at ND49.

Some nearby airports with instrument procedures:

KGWR - Gwinner Airport-Roger Melroe Field (21 nm W)
KBWP - Harry Stern Airport (22 nm E)
K74 - Robert Odegaard Field Airport (26 nm N)
6L3 - Lisbon Municipal Airport (28 nm NW)
8D3 - Sisseton Municipal Airport (34 nm S)
 
Loc | Ops | Rwys | IFR | FBO | Links
Com | Nav | Svcs | Stats | Notes

Bismarck Aero Center
AirBoss

 
Area around ND49 (Krause Private Airport)
 
Road maps at: MapQuest Bing Google
 
Aerial photo
No photo
 
Sectional chart

 
Airport distance calculator
Flying to Krause Private Airport? Find the distance to fly.

From to ND49

Sunrise and sunset
Times for 03-Dec-2022
 Local
(UTC-6)
 Zulu
(UTC)
Morning civil twilight07:2013:20
Sunrise07:5413:54
Sunset16:4322:43
Evening civil twilight17:1723:17

Current date and time
Zulu (UTC)  04-Dec-2022 01:02:31
Local (UTC-6)  03-Dec-2022 19:02:31
 
METAR
KGWR 
21nm W 
040055Z AUTO 23010KT 10SM CLR M11/M11 A3015 RMK A01
KBWP 
22nm E 
040055Z AUTO 00000KT 10SM CLR M13/M17 A3019 RMK AO2
K8D3 
34nm S 
040056Z AUTO 25005KT M05/M11 A3016 RMK AO1 SLP254 T10501111
KBTN 
35nm SW 
SuperAWOS
040055Z AUTO 17005KT 10SM CLR M13/M13 A3015 RMK AO2
K2D5 
40nm W 
040055Z AUTO 20007KT 10SM FEW042 FEW060 M13/M16 A3015 RMK AO2
KFFM 
41nm E 
040055Z AUTO 11003KT 10SM CLR M12/M16 A3017 RMK AO2
KETH 
41nm SE 
040053Z AUTO 00000KT 10SM M11/M14 A3020 RMK AO2
KJKJ 
41nm NE 
040055Z AUTO 17007KT 10SM CLR M13/M17 A3018 RMK AO2 TSNO
TAF
KFAR 
45nm N 
031722Z 0318/0418 20011KT P6SM BKN080 FM032200 20008KT P6SM SCT100 FM040800 24009KT P6SM FEW250 FM041200 23010KT P6SM FEW250 WS020/29035KT
NOTAMs
Click for the latest NOTAMs
NOTAMs are issued by the DoD/FAA and will open in a separate window not controlled by AirNav.

 

 
 

Would you like to see your business listed on this page?

 If your business provides an interesting product or service to pilots, flight crews, aircraft, or users of the Krause Private Airport, you should consider listing it here.  To start the listing process, click on the button below
 
Add a business
 

Other Pages about Krause Private Airport

Update a link
 
Copyright © AirNav, LLC. All rights reserved. Privacy Policy  Contact